Time;durP1;ratioP1;P1;durP2;ratioP2;P2;SDS_P1;SDS_P2;PMS_P1;PMS_P2;Temp;Humidity;BMP_temperature;BMP_pressure;BME280_temperature;BME280_humidity;BME280_pressure;Samples;Min_cycle;Max_cycle;Signal;HPM_P1;HPM_P2
2024/04/04 02:24:22;;;;;;;12.23;5.25;;;13.60;88.80;;;;;;5049783;28;20067;-70
2024/04/04 02:26:49;;;;;;;16.58;5.70;;;13.50;88.70;;;;;;5071187;28;20040;-70
2024/04/04 02:29:15;;;;;;;12.10;5.22;;;13.50;88.80;;;;;;5053187;28;20418;-70
2024/04/04 02:31:41;;;;;;;19.02;5.72;;;13.50;88.70;;;;;;5071236;28;20093;-70
2024/04/04 02:34:07;;;;;;;15.48;5.85;;;13.50;88.80;;;;;;5071542;28;20029;-71
2024/04/04 02:36:32;;;;;;;13.70;5.05;;;13.60;88.80;;;;;;5071333;28;20033;-70
2024/04/04 02:38:58;;;;;;;19.98;5.57;;;13.70;88.80;;;;;;5071503;28;20033;-70
2024/04/04 02:41:24;;;;;;;14.63;5.55;;;13.70;88.70;;;;;;5071326;28;20062;-71
2024/04/04 02:43:50;;;;;;;16.13;5.93;;;13.70;88.90;;;;;;5071318;28;20036;-69
2024/04/04 02:46:15;;;;;;;13.07;5.03;;;13.70;88.70;;;;;;5071062;28;20124;-70
2024/04/04 02:48:42;;;;;;;14.73;5.30;;;13.70;88.70;;;;;;5070921;28;20040;-70
2024/04/04 02:51:08;;;;;;;16.58;5.47;;;13.70;88.90;;;;;;5071098;28;20041;-70
2024/04/04 02:53:34;;;;;;;21.67;6.60;;;13.70;88.70;;;;;;5071077;28;20423;-70
2024/04/04 02:56:00;;;;;;;16.02;6.32;;;13.70;88.70;;;;;;5071327;28;20036;-71
2024/04/04 02:58:26;;;;;;;15.60;5.85;;;13.70;88.80;;;;;;5071247;28;20433;-71
2024/04/04 03:00:53;;;;;;;16.52;5.60;;;13.80;88.80;;;;;;5053083;28;20032;-70
2024/04/04 03:03:19;;;;;;;12.82;4.35;;;13.70;88.70;;;;;;5071661;28;20086;-70
2024/04/04 03:05:45;;;;;;;13.68;5.40;;;13.70;88.80;;;;;;5072652;28;20476;-71
2024/04/04 03:08:15;;;;;;;16.40;5.35;;;13.80;88.90;;;;;;5074666;28;20044;-70
2024/04/04 03:10:42;;;;;;;16.65;5.15;;;13.80;88.60;;;;;;5074510;28;20094;-70
2024/04/04 03:13:08;;;;;;;15.77;6.18;;;13.80;88.60;;;;;;5074727;28;20039;-71
2024/04/04 03:15:34;;;;;;;13.00;4.53;;;13.80;88.40;;;;;;5074578;28;20400;-70
2024/04/04 03:18:00;;;;;;;16.05;4.90;;;13.80;88.40;;;;;;5074315;28;20028;-71
2024/04/04 03:20:26;;;;;;;14.32;4.30;;;13.80;88.20;;;;;;5074208;28;20388;-70
2024/04/04 03:22:52;;;;;;;11.95;4.72;;;13.80;88.20;;;;;;5074350;28;20029;-71
2024/04/04 03:25:18;;;;;;;14.25;5.07;;;13.80;88.10;;;;;;5074407;28;20048;-69
2024/04/04 03:27:44;;;;;;;15.85;4.80;;;13.80;88.20;;;;;;5074073;28;20474;-70
2024/04/04 03:30:10;;;;;;;11.88;4.32;;;13.70;88.10;;;;;;5074207;28;20112;-69
2024/04/04 03:32:37;;;;;;;14.43;5.25;;;13.60;88.10;;;;;;5073943;28;20083;-69
2024/04/04 03:35:03;;;;;;;16.65;5.18;;;13.60;88.30;;;;;;5074014;28;20036;-70
2024/04/04 03:37:30;;;;;;;15.55;4.47;;;13.60;88.10;;;;;;5074214;28;20029;-70
2024/04/04 03:39:56;;;;;;;13.27;4.43;;;13.40;88.20;;;;;;5074252;28;20033;-70
2024/04/04 03:42:22;;;;;;;14.65;4.90;;;13.40;88.20;;;;;;5074312;28;20063;-70
2024/04/04 03:44:51;;;;;;;16.55;4.70;;;13.40;88.30;;;;;;5056016;28;20115;-71
2024/04/04 03:47:17;;;;;;;13.18;4.43;;;13.50;88.40;;;;;;5074439;28;20040;-70
2024/04/04 03:49:42;;;;;;;12.55;4.45;;;13.50;88.30;;;;;;5074404;28;20407;-71
2024/04/04 03:52:08;;;;;;;13.30;5.50;;;13.60;88.30;;;;;;5074280;28;20041;-70
2024/04/04 03:54:34;;;;;;;14.32;4.68;;;13.60;88.00;;;;;;5074353;28;20035;-70
2024/04/04 03:56:59;;;;;;;11.38;4.57;;;13.70;88.00;;;;;;5074741;28;20036;-70
2024/04/04 03:59:25;;;;;;;13.55;4.13;;;13.70;87.90;;;;;;5074208;28;20029;-70
2024/04/04 04:01:52;;;;;;;13.82;4.25;;;13.60;87.80;;;;;;5074094;28;20505;-70
2024/04/04 04:04:18;;;;;;;13.15;4.40;;;13.60;88.00;;;;;;5073764;28;20117;-71
2024/04/04 04:06:43;;;;;;;15.20;4.18;;;13.60;87.90;;;;;;5074281;28;20052;-69
2024/04/04 04:09:09;;;;;;;12.35;4.10;;;13.60;87.60;;;;;;5073789;28;20037;-71
2024/04/04 04:11:35;;;;;;;12.88;3.85;;;13.60;87.60;;;;;;5074040;28;20044;-70
2024/04/04 04:14:00;;;;;;;12.88;4.50;;;13.60;87.70;;;;;;5073904;28;20500;-72
2024/04/04 04:16:27;;;;;;;13.55;4.28;;;13.60;87.80;;;;;;5073248;28;20033;-70
2024/04/04 04:18:53;;;;;;;16.25;4.57;;;13.60;87.70;;;;;;5063771;22;20076;-70
2024/04/04 04:21:21;;;;;;;13.38;4.20;;;13.60;87.80;;;;;;5073756;28;20130;-70
2024/04/04 04:23:48;;;;;;;15.35;4.70;;;13.60;87.80;;;;;;5074075;28;20032;-69
2024/04/04 04:26:14;;;;;;;10.57;4.15;;;13.60;87.90;;;;;;4991820;28;20034;-70
2024/04/04 04:28:40;;;;;;;15.57;4.65;;;13.50;87.50;;;;;;4991296;28;20456;-70
2024/04/04 04:31:26;;;;;;;14.80;4.10;;;13.40;87.90;;;;;;4989826;28;20040;-71
2024/04/04 04:36:31;;;;;;;13.52;4.32;;;13.40;88.00;;;;;;5214372;22;20052;-70
2024/04/04 04:38:57;;;;;;;12.10;3.95;;;13.40;88.20;;;;;;5093022;28;20055;-69
2024/04/04 04:41:23;;;;;;;15.27;4.28;;;13.30;88.00;;;;;;5093823;28;20079;-70
2024/04/04 04:43:50;;;;;;;18.73;4.75;;;13.30;88.10;;;;;;5093678;28;20032;-69
2024/04/04 04:46:16;;;;;;;13.35;4.20;;;13.20;88.40;;;;;;5093679;28;20062;-71
2024/04/04 04:48:42;;;;;;;14.32;4.45;;;13.20;88.20;;;;;;5093570;28;20048;-71
2024/04/04 04:51:08;;;;;;;9.52;3.80;;;13.10;88.30;;;;;;5093382;28;20039;-68
2024/04/04 04:53:35;;;;;;;27.80;6.32;;;13.10;88.40;;;;;;5090448;28;20055;-69
2024/04/04 04:56:01;;;;;;;12.98;3.88;;;13.20;89.10;;;;;;5055978;28;20411;-70
2024/04/04 04:58:27;;;;;;;12.75;4.38;;;13.50;88.30;;;;;;5071289;28;20029;-70
2024/04/04 05:00:53;;;;;;;13.23;4.72;;;13.40;88.20;;;;;;5072654;28;20032;-69
2024/04/04 05:03:23;;;;;;;13.98;4.53;;;13.40;87.40;;;;;;5073259;28;20391;-70
2024/04/04 05:05:50;;;;;;;11.63;4.40;;;13.40;87.60;;;;;;5073252;28;20060;-70
2024/04/04 05:08:17;;;;;;;15.02;5.13;;;13.40;87.40;;;;;;5072912;28;20051;-70
2024/04/04 05:10:43;;;;;;;14.38;4.47;;;13.40;87.20;;;;;;5072810;28;20449;-69
2024/04/04 05:13:09;;;;;;;13.13;4.38;;;13.40;87.10;;;;;;5038569;28;20068;-69
2024/04/04 05:15:46;;;;;;;14.80;4.55;;;13.40;86.80;;;;;;5073015;28;20043;-69
2024/04/04 05:18:12;;;;;;;13.23;4.43;;;13.40;86.80;;;;;;5073024;28;20052;-70
2024/04/04 05:20:39;;;;;;;10.93;4.40;;;13.40;86.40;;;;;;5072734;28;20056;-69
2024/04/04 05:23:04;;;;;;;20.75;4.63;;;13.40;86.50;;;;;;5072922;28;20025;-70
2024/04/04 05:25:30;;;;;;;12.57;4.32;;;13.40;86.40;;;;;;5073126;28;20388;-71
2024/04/04 05:27:56;;;;;;;12.85;4.70;;;13.40;86.40;;;;;;5072388;28;20084;-70
2024/04/04 05:30:21;;;;;;;15.73;4.72;;;13.40;86.40;;;;;;5083302;28;20063;-73
2024/04/04 05:32:47;;;;;;;13.48;4.60;;;13.40;86.40;;;;;;5093069;28;20032;-70
2024/04/04 05:35:14;;;;;;;13.82;4.45;;;13.30;86.20;;;;;;5092876;28;20170;-70
2024/04/04 05:37:40;;;;;;;11.82;4.50;;;13.30;86.10;;;;;;5092891;28;20056;-70
2024/04/04 05:40:08;;;;;;;13.25;5.25;;;13.30;86.10;;;;;;5093103;28;20039;-69
2024/04/04 05:42:34;;;;;;;12.88;4.72;;;13.30;85.90;;;;;;5078959;28;20036;-71
2024/04/04 05:45:00;;;;;;;16.23;6.28;;;13.40;86.10;;;;;;5072565;28;20044;-71
2024/04/04 05:47:26;;;;;;;18.42;5.90;;;13.40;85.90;;;;;;5072789;28;20032;-71
2024/04/04 05:49:52;;;;;;;15.18;5.07;;;13.50;85.50;;;;;;5077592;28;20063;-71
2024/04/04 05:52:18;;;;;;;16.63;6.13;;;13.60;85.40;;;;;;5077225;28;20483;-70
2024/04/04 05:54:47;;;;;;;21.25;7.93;;;13.90;85.30;;;;;;5072027;28;20111;-70
2024/04/04 05:57:13;;;;;;;19.40;5.93;;;14.90;83.20;;;;;;5072549;28;20043;-71
2024/04/04 05:59:39;;;;;;;20.17;7.88;;;16.10;80.30;;;;;;5072461;28;20108;-71
2024/04/04 06:02:05;;;;;;;21.58;11.68;;;17.00;78.10;;;;;;5071461;28;20120;-70
2024/04/04 06:04:31;;;;;;;18.40;6.60;;;17.90;75.70;;;;;;5072580;28;20526;-71
2024/04/04 06:06:56;;;;;;;14.75;4.10;;;18.40;73.90;;;;;;5072668;28;20116;-71
2024/04/04 06:09:22;;;;;;;10.15;4.05;;;19.10;72.20;;;;;;5072625;28;20080;-69
2024/04/04 06:11:48;;;;;;;14.52;4.63;;;19.60;70.30;;;;;;5072518;28;20035;-71
2024/04/04 06:14:14;;;;;;;13.10;4.00;;;19.90;69.70;;;;;;5072360;28;20465;-70
2024/04/04 06:16:39;;;;;;;12.43;3.70;;;20.30;68.90;;;;;;5072597;28;20032;-72
2024/04/04 06:19:05;;;;;;;14.65;4.15;;;20.80;67.30;;;;;;5072371;28;20388;-71
2024/04/04 06:21:31;;;;;;;11.50;3.60;;;21.10;66.20;;;;;;5072378;28;20033;-71
2024/04/04 06:23:57;;;;;;;10.90;3.70;;;21.40;65.00;;;;;;5072495;28;20036;-71
2024/04/04 06:26:25;;;;;;;12.68;3.20;;;21.90;64.10;;;;;;5072001;28;20033;-72
2024/04/04 06:28:52;;;;;;;12.10;3.30;;;22.40;62.60;;;;;;5072386;28;20059;-71
2024/04/04 06:31:18;;;;;;;12.25;3.72;;;23.00;60.70;;;;;;5072064;28;20041;-71
2024/04/04 06:33:44;;;;;;;14.93;3.63;;;23.10;59.00;;;;;;5072183;28;20029;-72
2024/04/04 06:36:10;;;;;;;8.48;3.05;;;23.10;58.90;;;;;;5083131;28;20121;-72
2024/04/04 06:38:35;;;;;;;14.32;3.38;;;22.90;59.50;;;;;;5092228;28;20483;-71
2024/04/04 06:41:01;;;;;;;10.85;3.42;;;22.90;58.80;;;;;;5094529;28;20039;-70
2024/04/04 06:43:27;;;;;;;11.35;3.13;;;22.90;58.50;;;;;;5096132;28;20043;-70
2024/04/04 06:45:53;;;;;;;14.27;3.85;;;23.10;57.70;;;;;;5096221;28;20141;-70
2024/04/04 06:48:19;;;;;;;12.25;3.38;;;23.40;57.40;;;;;;5096081;28;20028;-72
2024/04/04 06:50:45;;;;;;;10.32;3.05;;;23.50;57.00;;;;;;5096119;28;20044;-71
2024/04/04 06:53:11;;;;;;;11.90;3.17;;;23.70;56.30;;;;;;5096256;28;20035;-71
2024/04/04 06:55:37;;;;;;;12.43;3.67;;;24.00;56.20;;;;;;5096322;28;20028;-72
2024/04/04 06:58:03;;;;;;;13.27;3.50;;;24.60;55.40;;;;;;5096275;28;20034;-72
2024/04/04 07:00:29;;;;;;;13.43;4.00;;;25.10;54.90;;;;;;5096081;28;20429;-73
2024/04/04 07:02:55;;;;;;;13.18;4.00;;;25.90;53.50;;;;;;5095888;28;20032;-72
2024/04/04 07:05:21;;;;;;;13.20;4.78;;;26.00;52.60;;;;;;5096047;28;20407;-72
2024/04/04 07:07:46;;;;;;;13.27;5.68;;;26.10;52.50;;;;;;5095889;28;20107;-71
2024/04/04 07:10:13;;;;;;;18.23;7.43;;;26.50;51.70;;;;;;5096169;28;20112;-72
2024/04/04 07:12:39;;;;;;;18.92;6.95;;;26.30;51.30;;;;;;5095649;28;20035;-72
2024/04/04 07:15:05;;;;;;;19.00;8.30;;;26.60;51.50;;;;;;5095517;28;20427;-73
2024/04/04 07:17:30;;;;;;;14.93;8.25;;;26.60;50.80;;;;;;5095702;28;20073;-72
2024/04/04 07:19:57;;;;;;;19.48;8.57;;;27.10;50.50;;;;;;5095682;28;20060;-72
2024/04/04 07:22:23;;;;;;;16.73;8.18;;;27.20;50.30;;;;;;5095524;28;20040;-74
2024/04/04 07:24:49;;;;;;;14.43;8.48;;;27.20;49.80;;;;;;5095510;28;20039;-72
2024/04/04 07:27:15;;;;;;;18.58;8.93;;;27.40;49.50;;;;;;5095850;28;20051;-73
2024/04/04 07:29:44;;;;;;;25.73;8.88;;;27.20;49.30;;;;;;5095327;28;20044;-73
2024/04/04 07:32:10;;;;;;;21.52;8.73;;;27.10;49.00;;;;;;5095597;28;20028;-73
2024/04/04 07:34:36;;;;;;;23.95;8.20;;;25.50;50.20;;;;;;5095599;28;20039;-71
2024/04/04 07:37:02;;;;;;;23.35;7.80;;;24.20;51.90;;;;;;5076789;28;20044;-73
2024/04/04 07:39:33;;;;;;;23.40;8.30;;;23.10;53.40;;;;;;5095233;28;20046;-73
2024/04/04 07:41:59;;;;;;;19.20;7.72;;;22.40;54.70;;;;;;5095180;28;20077;-73
2024/04/04 07:44:25;;;;;;;14.48;5.78;;;21.70;55.60;;;;;;5095148;28;20036;-73
2024/04/04 07:46:52;;;;;;;16.10;5.55;;;21.30;56.10;;;;;;5095226;28;20037;-72
2024/04/04 07:49:18;;;;;;;16.33;5.97;;;20.90;56.60;;;;;;5095135;28;20105;-72
2024/04/04 07:51:48;;;;;;;14.18;5.70;;;20.50;57.20;;;;;;5093509;28;20499;-73
2024/04/04 07:54:14;;;;;;;12.10;5.45;;;20.30;57.40;;;;;;5076770;28;20119;-71
2024/04/04 07:56:40;;;;;;;16.48;5.13;;;20.10;58.00;;;;;;5095212;28;20035;-72
2024/04/04 07:59:07;;;;;;;11.93;4.90;;;20.00;58.20;;;;;;5094913;28;20392;-71
2024/04/04 08:01:33;;;;;;;15.30;5.10;;;19.90;58.50;;;;;;5075224;28;20032;-72
2024/04/04 08:03:59;;;;;;;16.73;5.60;;;19.70;59.00;;;;;;5094700;28;20032;-70
2024/04/04 08:06:25;;;;;;;19.15;5.35;;;19.70;59.50;;;;;;5094810;28;20047;-72
2024/04/04 08:08:50;;;;;;;17.55;5.53;;;19.70;60.00;;;;;;5094658;28;20067;-71
2024/04/04 08:11:16;;;;;;;17.13;4.88;;;19.60;60.20;;;;;;5092875;28;20032;-72
2024/04/04 08:13:45;;;;;;;15.05;4.82;;;19.60;60.60;;;;;;5094437;28;20036;-71
2024/04/04 08:16:11;;;;;;;11.35;3.40;;;19.50;60.80;;;;;;5092261;28;20123;-71
2024/04/04 08:18:37;;;;;;;23.83;4.32;;;19.40;61.30;;;;;;5093751;28;20044;-70
2024/04/04 08:21:03;;;;;;;11.43;3.22;;;19.30;61.80;;;;;;5085400;28;20063;-71
2024/04/04 08:23:30;;;;;;;16.08;3.67;;;19.20;61.90;;;;;;5075126;28;20040;-70
2024/04/04 08:25:57;;;;;;;10.82;3.65;;;19.10;62.10;;;;;;5066865;28;20035;-69
2024/04/04 08:28:23;;;;;;;11.18;3.53;;;19.00;62.50;;;;;;5073916;28;20487;-70
2024/04/04 08:31:03;;;;;;;8.60;2.70;;;18.90;62.60;;;;;;5073954;28;20064;-70
2024/04/04 08:33:33;;;;;;;10.85;3.75;;;18.90;62.20;;;;;;5074824;28;20039;-71
2024/04/04 08:36:00;;;;;;;9.68;2.58;;;18.90;62.50;;;;;;5073690;28;20053;-70
2024/04/04 08:38:26;;;;;;;11.30;2.88;;;18.90;62.40;;;;;;5091405;28;20036;-73
2024/04/04 08:41:00;;;;;;;9.85;2.50;;;19.00;62.20;;;;;;5091986;28;20032;-71
2024/04/04 08:43:27;;;;;;;7.30;2.30;;;19.00;61.10;;;;;;5075733;28;20111;-70
2024/04/04 08:45:56;;;;;;;7.43;2.60;;;19.10;60.50;;;;;;5085621;28;20056;-70
2024/04/04 08:48:25;;;;;;;10.23;2.70;;;19.10;59.70;;;;;;5073105;28;20094;-71
2024/04/04 08:50:51;;;;;;;18.13;4.95;;;19.10;59.70;;;;;;5076860;28;20044;-70
2024/04/04 08:53:22;;;;;;;14.45;3.35;;;19.10;59.60;;;;;;5086214;28;20414;-71
2024/04/04 08:55:50;;;;;;;6.38;2.22;;;19.20;59.30;;;;;;5073489;28;20488;-69
2024/04/04 08:58:16;;;;;;;9.65;2.30;;;19.20;58.70;;;;;;5075972;28;20116;-70
2024/04/04 09:00:43;;;;;;;10.90;2.40;;;19.20;58.40;;;;;;5073051;28;20036;-69
2024/04/04 09:03:12;;;;;;;12.13;2.75;;;19.20;58.10;;;;;;5076608;28;20036;-69
2024/04/04 09:05:51;;;;;;;7.63;2.15;;;19.20;58.40;;;;;;5093610;28;20047;-70
2024/04/04 09:08:17;;;;;;;9.85;2.63;;;19.20;59.00;;;;;;5086351;28;20399;-70
2024/04/04 09:10:45;;;;;;;10.68;2.17;;;19.20;58.40;;;;;;5075694;28;20510;-74
2024/04/04 09:13:11;;;;;;;72.65;10.73;;;19.20;58.10;;;;;;5088424;28;20029;-75
2024/04/04 09:15:39;;;;;;;15.27;3.20;;;19.20;58.70;;;;;;5078523;28;20513;-73
2024/04/04 09:18:07;;;;;;;13.40;2.55;;;19.30;59.90;;;;;;5083810;28;20036;-73
2024/04/04 09:20:33;;;;;;;7.72;1.88;;;19.30;58.90;;;;;;5083524;28;20094;-74
2024/04/04 09:23:02;;;;;;;7.88;1.70;;;19.30;58.00;;;;;;5072721;28;20028;-72
2024/04/04 09:25:29;;;;;;;7.93;1.70;;;19.30;58.00;;;;;;5073223;28;20040;-72
2024/04/04 09:27:57;;;;;;;7.20;1.98;;;19.30;58.20;;;;;;5073964;28;20172;-72
2024/04/04 09:30:26;;;;;;;7.80;1.88;;;19.40;58.20;;;;;;5072909;28;20036;-73
2024/04/04 09:32:53;;;;;;;10.18;2.58;;;19.40;57.70;;;;;;5073560;28;20039;-72
2024/04/04 09:35:20;;;;;;;19.73;3.58;;;19.50;57.70;;;;;;5088261;28;20047;-71
2024/04/04 09:37:46;;;;;;;17.90;3.20;;;19.50;57.40;;;;;;5074920;28;20040;-72
2024/04/04 09:40:13;;;;;;;16.05;2.50;;;19.60;57.50;;;;;;5072053;28;20044;-72
2024/04/04 09:42:41;;;;;;;25.23;4.18;;;19.70;57.30;;;;;;5073148;28;20036;-82
2024/04/04 09:45:08;;;;;;;9.27;2.90;;;19.80;57.30;;;;;;5083647;28;20040;-81
2024/04/04 09:47:39;;;;;;;11.93;2.20;;;19.80;57.30;;;;;;5077179;28;20029;-82
2024/04/04 09:50:05;;;;;;;7.50;2.13;;;19.90;57.20;;;;;;5094547;28;20075;-83
2024/04/04 09:52:33;;;;;;;8.10;2.33;;;19.90;57.20;;;;;;5093412;28;20036;-72
2024/04/04 09:55:00;;;;;;;18.73;3.45;;;20.00;57.20;;;;;;5092297;28;20110;-72
2024/04/04 09:57:25;;;;;;;7.97;2.15;;;20.00;57.20;;;;;;5092115;28;20456;-72
2024/04/04 10:00:14;;;;;;;8.00;2.60;;;20.00;57.20;;;;;;5073869;28;20062;-74
2024/04/04 10:02:51;;;;;;;6.88;1.88;;;20.10;57.20;;;;;;5092546;28;20034;-74
2024/04/04 10:05:22;;;;;;;13.63;2.42;;;20.10;57.20;;;;;;5092550;28;20488;-72
2024/04/04 10:07:48;;;;;;;11.02;2.35;;;20.20;57.30;;;;;;5092373;28;20118;-72
2024/04/04 10:10:16;;;;;;;14.50;2.75;;;20.20;57.30;;;;;;5092678;28;20047;-72
2024/04/04 10:12:54;;;;;;;11.50;2.45;;;20.30;57.40;;;;;;5092537;28;20039;-71
2024/04/04 10:15:21;;;;;;;9.50;2.30;;;20.40;57.40;;;;;;5095524;28;20111;-72
2024/04/04 10:17:51;;;;;;;11.45;2.38;;;20.40;57.30;;;;;;5099640;28;20085;-72
2024/04/04 10:20:20;;;;;;;7.65;1.98;;;20.40;57.30;;;;;;5099603;28;20036;-72
2024/04/04 10:22:55;;;;;;;8.63;2.60;;;20.50;57.50;;;;;;5099133;28;20525;-72
2024/04/04 10:25:25;;;;;;;7.95;2.05;;;20.60;57.60;;;;;;5081091;28;20402;-72
2024/04/04 10:28:01;;;;;;;4.82;1.75;;;20.60;57.50;;;;;;5099208;28;20082;-73
2024/04/04 10:30:27;;;;;;;7.57;2.05;;;20.70;57.50;;;;;;5099520;28;20396;-71
2024/04/04 10:32:53;;;;;;;8.25;2.03;;;20.70;57.50;;;;;;5099376;28;20035;-72
